Time;durP1;ratioP1;P1;durP2;ratioP2;P2;SDS_P1;SDS_P2;PMS_P1;PMS_P2;Temp;Humidity;BMP_temperature;BMP_pressure;BME280_temperature;BME280_humidity;BME280_pressure;Samples;Min_cycle;Max_cycle;Signal;HPM_P1;HPM_P2
2022/10/26 00:01:27;;;;;;;6.70;5.77;;;14.70;99.90;;;;;;5115589;28;20528;-72
2022/10/26 00:03:55;;;;;;;6.43;4.60;;;14.70;99.90;;;;;;5135044;28;20480;-72
2022/10/26 00:06:24;;;;;;;6.50;5.40;;;14.70;99.90;;;;;;5134850;27;20191;-73
2022/10/26 00:08:50;;;;;;;9.03;5.67;;;14.70;99.90;;;;;;5116524;28;20981;-72
2022/10/26 00:11:17;;;;;;;5.80;5.03;;;14.60;99.90;;;;;;5134725;27;20431;-78
2022/10/26 00:13:44;;;;;;;7.10;4.97;;;14.60;99.90;;;;;;5116309;28;20427;-78
2022/10/26 00:16:36;;;;;;;6.67;5.47;;;14.50;99.90;;;;;;5134595;27;20423;-78
2022/10/26 00:19:01;;;;;;;6.30;5.33;;;14.50;99.90;;;;;;5130019;28;20518;-72
2022/10/26 00:21:27;;;;;;;7.93;5.80;;;14.50;99.90;;;;;;5134519;27;20475;-75
2022/10/26 00:23:52;;;;;;;6.97;5.57;;;14.40;99.90;;;;;;5116102;28;20709;-72
2022/10/26 00:26:18;;;;;;;8.38;6.28;;;14.40;99.90;;;;;;5052653;27;1820144;-78
2022/10/26 00:28:43;;;;;;;9.30;7.50;;;14.40;99.90;;;;;;5135436;27;20179;-78
2022/10/26 00:31:14;;;;;;;12.80;7.93;;;14.30;99.90;;;;;;5135132;27;20195;-78
2022/10/26 00:33:40;;;;;;;12.07;8.20;;;14.30;99.90;;;;;;5135209;27;20169;-77
2022/10/26 00:36:08;;;;;;;8.90;7.00;;;14.30;99.90;;;;;;5135119;27;20443;-78
2022/10/26 00:38:34;;;;;;;8.80;6.60;;;14.20;99.90;;;;;;5135243;27;20493;-78
2022/10/26 00:41:00;;;;;;;14.53;9.90;;;14.20;99.90;;;;;;5135055;27;20478;-76
2022/10/26 00:43:28;;;;;;;10.23;7.93;;;14.10;99.90;;;;;;5116566;27;20215;-73
2022/10/26 00:45:57;;;;;;;10.63;6.90;;;14.10;99.90;;;;;;5135042;27;20203;-72
2022/10/26 00:48:53;;;;;;;11.87;7.77;;;14.00;99.90;;;;;;5135097;27;20402;-72
2022/10/26 00:51:42;;;;;;;10.57;7.97;;;14.00;99.90;;;;;;5116465;27;20475;-72
2022/10/26 00:54:13;;;;;;;15.77;9.03;;;13.90;99.90;;;;;;5134873;27;20455;-78
2022/10/26 00:56:39;;;;;;;14.80;11.07;;;13.90;99.90;;;;;;5135009;27;20810;-78
2022/10/26 00:59:09;;;;;;;17.10;9.70;;;13.80;99.90;;;;;;5116426;27;20423;-72
2022/10/26 01:01:37;;;;;;;20.23;11.00;;;13.70;99.90;;;;;;5116462;27;20443;-78
2022/10/26 01:04:03;;;;;;;16.07;10.30;;;13.70;99.90;;;;;;5134889;27;20466;-72
2022/10/26 01:06:30;;;;;;;16.73;10.73;;;13.60;99.90;;;;;;5134720;27;20434;-72
2022/10/26 01:08:56;;;;;;;18.90;10.73;;;13.60;99.90;;;;;;5134926;27;20407;-72
2022/10/26 01:11:22;;;;;;;13.57;9.40;;;13.60;99.90;;;;;;5115788;27;20443;-72
2022/10/26 01:13:51;;;;;;;14.40;9.47;;;13.60;99.90;;;;;;5115975;28;20174;-78
2022/10/26 01:16:29;;;;;;;10.37;7.37;;;13.50;99.90;;;;;;5134568;27;20423;-78
2022/10/26 01:19:34;;;;;;;16.73;10.10;;;13.50;99.90;;;;;;5134980;28;20407;-78
2022/10/26 01:22:07;;;;;;;13.67;9.23;;;13.50;99.90;;;;;;5134667;28;20400;-78
2022/10/26 01:24:45;;;;;;;14.47;10.33;;;13.40;99.90;;;;;;5115981;28;20483;-77
2022/10/26 01:27:19;;;;;;;18.20;10.00;;;13.40;99.90;;;;;;5116183;28;20483;-78
2022/10/26 01:30:18;;;;;;;14.00;9.77;;;13.30;99.90;;;;;;5116164;28;20439;-77
2022/10/26 01:32:59;;;;;;;11.90;8.73;;;13.30;99.90;;;;;;5134837;28;20896;-72
2022/10/26 01:35:41;;;;;;;14.10;8.00;;;13.30;99.90;;;;;;5134553;27;20427;-73
2022/10/26 01:38:33;;;;;;;12.73;8.77;;;13.20;99.90;;;;;;5134418;28;20399;-78
2022/10/26 01:41:22;;;;;;;17.07;9.53;;;13.10;99.90;;;;;;5115936;28;20530;-78
2022/10/26 01:44:12;;;;;;;12.70;9.50;;;13.10;99.90;;;;;;5116021;28;20852;-78
2022/10/26 01:46:42;;;;;;;12.80;9.57;;;13.10;99.90;;;;;;5116056;28;20422;-78
2022/10/26 01:49:14;;;;;;;14.33;10.13;;;13.00;99.90;;;;;;5134489;27;20419;-78
2022/10/26 01:51:42;;;;;;;15.20;8.77;;;13.00;99.90;;;;;;5134453;28;20383;-72
2022/10/26 01:54:08;;;;;;;14.30;9.40;;;12.90;99.90;;;;;;5115843;27;20423;-72
2022/10/26 01:56:39;;;;;;;13.33;8.10;;;12.90;99.90;;;;;;5134280;28;20842;-72
2022/10/26 01:59:19;;;;;;;12.57;9.07;;;12.80;99.90;;;;;;5115783;27;20514;-72
2022/10/26 02:01:49;;;;;;;9.90;5.87;;;12.80;99.90;;;;;;5116164;28;20419;-77
2022/10/26 02:04:44;;;;;;;11.90;5.70;;;12.70;99.90;;;;;;5134361;27;20811;-77
2022/10/26 02:07:37;;;;;;;10.40;6.87;;;12.60;99.90;;;;;;5134287;28;20416;-72
2022/10/26 02:10:23;;;;;;;15.70;6.20;;;12.50;99.90;;;;;;5134205;27;20528;-78
2022/10/26 02:13:14;;;;;;;6.30;4.50;;;12.50;99.90;;;;;;5115726;28;20425;-72
2022/10/26 02:15:55;;;;;;;10.97;5.80;;;12.40;99.90;;;;;;5115709;28;20536;-78
2022/10/26 02:18:31;;;;;;;5.70;3.87;;;12.40;99.90;;;;;;5133982;28;20468;-72
2022/10/26 02:21:05;;;;;;;9.67;3.10;;;12.40;99.90;;;;;;5133963;27;20430;-72
2022/10/26 02:23:35;;;;;;;6.00;3.67;;;12.30;99.90;;;;;;5135018;27;20544;-78
2022/10/26 02:26:04;;;;;;;5.40;3.30;;;12.20;99.90;;;;;;5119150;27;20462;-77
2022/10/26 02:28:35;;;;;;;5.60;2.93;;;12.20;99.90;;;;;;5137939;27;20410;-72
2022/10/26 02:31:04;;;;;;;4.47;3.10;;;12.20;99.90;;;;;;5119304;27;20430;-72
2022/10/26 02:33:34;;;;;;;4.00;3.43;;;12.20;99.90;;;;;;5119154;27;20411;-72
2022/10/26 02:36:04;;;;;;;4.70;3.47;;;12.20;99.90;;;;;;5137544;27;20426;-72
2022/10/26 02:38:31;;;;;;;3.63;3.30;;;12.20;99.90;;;;;;5118992;27;20506;-72
2022/10/26 02:40:58;;;;;;;3.67;3.37;;;12.20;99.90;;;;;;5118927;27;20951;-78
2022/10/26 02:43:25;;;;;;;5.63;3.40;;;12.30;99.90;;;;;;5118912;27;20459;-78
2022/10/26 02:45:56;;;;;;;5.73;4.13;;;12.30;99.90;;;;;;5137476;27;20434;-77
2022/10/26 02:48:23;;;;;;;5.87;3.70;;;12.30;99.90;;;;;;5137327;27;20906;-77
2022/10/26 02:51:16;;;;;;;4.80;3.87;;;12.30;99.90;;;;;;5137213;27;20435;-78
2022/10/26 02:53:45;;;;;;;5.03;4.17;;;12.30;99.90;;;;;;5118928;27;20517;-78
2022/10/26 02:56:17;;;;;;;3.70;3.10;;;12.30;99.90;;;;;;5137115;27;20787;-72
2022/10/26 02:58:48;;;;;;;4.90;3.47;;;12.30;99.90;;;;;;5137167;27;20422;-72
2022/10/26 03:01:14;;;;;;;4.20;3.80;;;12.30;99.90;;;;;;5118535;27;20427;-72
2022/10/26 03:03:40;;;;;;;5.53;3.77;;;12.30;99.90;;;;;;5136978;27;21024;-72
2022/10/26 03:06:05;;;;;;;5.27;3.67;;;12.30;99.90;;;;;;5136929;27;20427;-77
2022/10/26 03:08:31;;;;;;;6.70;4.93;;;12.30;99.90;;;;;;5136937;27;20234;-72
2022/10/26 03:10:57;;;;;;;8.23;6.37;;;12.20;99.90;;;;;;5136825;27;20199;-72
2022/10/26 03:13:22;;;;;;;7.80;5.80;;;12.20;99.90;;;;;;5136844;27;20194;-72
2022/10/26 03:15:48;;;;;;;11.33;5.40;;;12.20;99.90;;;;;;5118259;27;20203;-72
2022/10/26 03:18:14;;;;;;;9.30;4.70;;;12.20;99.90;;;;;;5118120;27;20175;-72
2022/10/26 03:20:42;;;;;;;5.93;4.77;;;12.10;99.90;;;;;;5136704;27;20210;-78
2022/10/26 03:23:08;;;;;;;12.43;4.77;;;12.10;99.90;;;;;;5118049;27;20217;-72
2022/10/26 03:25:33;;;;;;;6.83;4.27;;;12.10;99.90;;;;;;5117818;27;20820;-72
2022/10/26 03:28:01;;;;;;;9.93;6.00;;;12.10;99.90;;;;;;5117993;27;20658;-78
2022/10/26 03:30:27;;;;;;;17.40;9.10;;;12.10;99.90;;;;;;5136411;27;20199;-72
2022/10/26 03:32:53;;;;;;;11.20;6.10;;;12.10;99.90;;;;;;5117897;27;20502;-72
2022/10/26 03:35:19;;;;;;;12.37;7.20;;;12.10;99.90;;;;;;5135770;27;21015;-72
2022/10/26 03:37:45;;;;;;;29.53;15.83;;;12.10;99.90;;;;;;5136370;27;20411;-77
2022/10/26 03:40:11;;;;;;;22.20;13.30;;;12.10;99.90;;;;;;5136739;27;20218;-77
2022/10/26 03:42:37;;;;;;;14.83;8.50;;;12.10;99.90;;;;;;5136366;27;20204;-77
2022/10/26 03:45:03;;;;;;;12.53;8.50;;;12.10;99.90;;;;;;5117567;27;20442;-72
2022/10/26 03:47:29;;;;;;;12.60;6.63;;;12.00;99.90;;;;;;5117626;27;20419;-77
2022/10/26 03:49:54;;;;;;;11.30;7.00;;;12.00;99.90;;;;;;5135953;27;20438;-78
2022/10/26 03:52:20;;;;;;;14.60;9.83;;;12.00;99.90;;;;;;5136079;27;20182;-72
2022/10/26 03:54:46;;;;;;;18.67;11.77;;;11.90;99.90;;;;;;5117943;27;20281;-72
2022/10/26 03:57:11;;;;;;;8.67;5.57;;;11.90;99.90;;;;;;5135893;27;20182;-72
2022/10/26 03:59:37;;;;;;;5.80;3.93;;;11.80;99.90;;;;;;5136149;27;20663;-72
2022/10/26 04:02:02;;;;;;;3.57;2.90;;;11.70;99.90;;;;;;5117504;27;20179;-72
2022/10/26 04:04:28;;;;;;;4.33;3.57;;;11.70;99.90;;;;;;5136026;27;20214;-72
2022/10/26 04:06:54;;;;;;;3.70;3.40;;;11.60;99.90;;;;;;5135920;27;20218;-72
2022/10/26 04:09:19;;;;;;;5.40;3.83;;;11.60;99.90;;;;;;5136050;27;20254;-72
2022/10/26 04:11:45;;;;;;;3.73;3.37;;;11.60;99.90;;;;;;5133953;27;20191;-72
2022/10/26 04:14:11;;;;;;;5.53;4.10;;;11.70;99.90;;;;;;5133697;27;20171;-72
2022/10/26 04:16:36;;;;;;;8.10;4.60;;;11.70;99.90;;;;;;5134636;27;20262;-72
2022/10/26 04:19:02;;;;;;;5.67;5.03;;;11.70;99.90;;;;;;5135748;27;20179;-77
2022/10/26 04:21:28;;;;;;;260.80;127.27;;;11.80;99.90;;;;;;5116973;27;20242;-72
2022/10/26 04:23:53;;;;;;;9.47;8.33;;;11.80;99.90;;;;;;5116408;27;20231;-71
2022/10/26 04:26:19;;;;;;;7.00;5.03;;;11.80;99.90;;;;;;5134354;27;20223;-77
2022/10/26 04:28:44;;;;;;;5.90;4.90;;;11.90;99.90;;;;;;5116299;27;20171;-71
2022/10/26 04:31:10;;;;;;;8.33;5.50;;;11.90;99.90;;;;;;5134818;27;20202;-71
2022/10/26 04:33:36;;;;;;;6.27;5.17;;;11.90;99.90;;;;;;5135408;27;20175;-77
2022/10/26 04:36:01;;;;;;;6.13;4.90;;;11.90;99.90;;;;;;5134676;27;20190;-72
2022/10/26 04:38:27;;;;;;;4.40;3.87;;;11.80;99.90;;;;;;5134857;27;20540;-72
2022/10/26 04:40:53;;;;;;;5.60;3.80;;;11.90;99.90;;;;;;5116652;27;20427;-71
2022/10/26 04:43:19;;;;;;;7.33;3.77;;;11.80;99.90;;;;;;5133755;27;20484;-72
2022/10/26 04:45:44;;;;;;;4.77;3.80;;;11.80;99.90;;;;;;5134970;27;20195;-72
2022/10/26 04:48:11;;;;;;;5.20;4.20;;;11.80;99.90;;;;;;5134660;27;20740;-71
2022/10/26 04:50:38;;;;;;;4.30;3.70;;;11.80;99.90;;;;;;5134538;27;20194;-71
2022/10/26 04:53:06;;;;;;;4.50;4.10;;;11.80;99.90;;;;;;5132353;27;20412;-76
2022/10/26 04:55:33;;;;;;;4.30;3.90;;;11.80;99.90;;;;;;5132528;27;20488;-77
2022/10/26 04:57:58;;;;;;;5.27;4.17;;;11.70;99.90;;;;;;5113690;27;20411;-77
2022/10/26 05:00:25;;;;;;;7.90;4.10;;;11.70;99.90;;;;;;5114023;27;20967;-77
2022/10/26 05:02:51;;;;;;;4.60;4.20;;;11.70;99.90;;;;;;5132527;27;20294;-71
2022/10/26 05:05:17;;;;;;;4.73;4.07;;;11.70;99.90;;;;;;5132522;27;20286;-77
2022/10/26 05:07:42;;;;;;;10.00;5.47;;;11.70;99.90;;;;;;5131973;27;20414;-77
2022/10/26 05:10:09;;;;;;;5.57;5.07;;;11.60;99.90;;;;;;5115025;28;20666;-71
2022/10/26 05:12:34;;;;;;;6.17;4.80;;;11.60;99.90;;;;;;5116383;28;20175;-76
2022/10/26 05:15:00;;;;;;;6.73;5.20;;;11.60;99.90;;;;;;5116001;28;21043;-77
2022/10/26 05:17:26;;;;;;;6.73;5.37;;;11.50;99.90;;;;;;5134061;28;20216;-71
2022/10/26 05:19:54;;;;;;;7.90;5.20;;;11.50;99.90;;;;;;5115721;28;20206;-77
2022/10/26 05:22:24;;;;;;;7.70;5.87;;;11.50;99.90;;;;;;5115404;28;20423;-71
2022/10/26 05:24:50;;;;;;;13.63;6.20;;;11.50;99.90;;;;;;5134614;28;20528;-72
2022/10/26 05:27:16;;;;;;;6.40;5.87;;;11.50;99.90;;;;;;5134132;28;20500;-71
2022/10/26 05:29:41;;;;;;;10.57;5.90;;;11.50;99.90;;;;;;5114054;28;20454;-72
2022/10/26 05:32:07;;;;;;;11.53;7.60;;;11.50;99.90;;;;;;5134406;28;20179;-71
2022/10/26 05:34:32;;;;;;;12.00;7.27;;;11.40;99.90;;;;;;5134291;28;20199;-71
2022/10/26 05:36:58;;;;;;;10.50;7.20;;;11.40;99.90;;;;;;5115894;28;20544;-71
2022/10/26 05:39:24;;;;;;;10.93;7.10;;;11.30;99.90;;;;;;5133108;28;20718;-71
2022/10/26 05:41:49;;;;;;;20.23;10.20;;;11.30;99.90;;;;;;5133357;28;20202;-71
2022/10/26 05:44:15;;;;;;;21.43;11.50;;;11.30;99.90;;;;;;5131448;27;20297;-71
2022/10/26 05:46:41;;;;;;;17.00;9.20;;;11.20;99.90;;;;;;5131756;28;20173;-73
2022/10/26 05:49:07;;;;;;;18.10;10.77;;;11.20;99.90;;;;;;5130568;27;20430;-72
2022/10/26 05:51:33;;;;;;;17.27;9.90;;;11.20;99.90;;;;;;5131521;28;20172;-77
2022/10/26 05:53:59;;;;;;;16.35;9.30;;;11.20;99.90;;;;;;5130576;28;20171;-76
2022/10/26 05:56:43;;;;;;;11.07;7.70;;;11.20;99.90;;;;;;5109545;28;20260;-76
2022/10/26 05:59:14;;;;;;;14.40;8.60;;;11.20;99.90;;;;;;5131949;27;20197;-77
2022/10/26 06:01:56;;;;;;;16.50;7.70;;;11.10;99.90;;;;;;5116623;27;20225;-77
2022/10/26 06:04:37;;;;;;;6.80;5.43;;;11.10;99.90;;;;;;5134030;27;21017;-71
2022/10/26 06:07:13;;;;;;;8.18;5.82;;;11.10;99.90;;;;;;5133442;27;20549;-72
2022/10/26 06:09:40;;;;;;;10.90;6.40;;;11.10;99.90;;;;;;5132754;27;20516;-77
2022/10/26 06:12:07;;;;;;;8.68;5.82;;;11.20;99.90;;;;;;5116319;27;20240;-71
2022/10/26 06:14:33;;;;;;;7.95;5.75;;;11.20;99.90;;;;;;5134387;27;20230;-71
2022/10/26 06:17:37;;;;;;;8.65;6.60;;;11.20;99.90;;;;;;5127449;27;20251;-71
2022/10/26 06:20:40;;;;;;;10.60;7.47;;;11.30;99.90;;;;;;5091230;27;20229;-77
2022/10/26 06:23:05;;;;;;;9.80;5.95;;;11.30;99.90;;;;;;5114103;27;20214;-77
2022/10/26 06:26:01;;;;;;;7.80;3.73;;;11.30;99.90;;;;;;5119610;27;20228;-77
2022/10/26 06:28:33;;;;;;;3.58;3.10;;;11.30;99.90;;;;;;5123579;27;20265;-77
2022/10/26 06:30:59;;;;;;;5.35;3.70;;;11.40;99.90;;;;;;5132946;27;20281;-77
2022/10/26 06:33:25;;;;;;;3.27;2.97;;;11.40;99.90;;;;;;5131656;27;20259;-77
2022/10/26 06:36:23;;;;;;;5.07;3.67;;;11.40;99.90;;;;;;5133838;27;20191;-71
2022/10/26 06:39:03;;;;;;;3.53;2.97;;;11.40;99.90;;;;;;5113425;27;20184;-77
2022/10/26 06:41:33;;;;;;;5.43;3.27;;;11.50;99.90;;;;;;5111849;27;20737;-77
2022/10/26 06:44:01;;;;;;;3.58;3.25;;;11.60;99.90;;;;;;5114807;27;20822;-72
2022/10/26 06:46:36;;;;;;;3.30;3.00;;;11.60;99.90;;;;;;5135702;27;20652;-77
2022/10/26 06:49:12;;;;;;;5.57;3.47;;;11.70;99.90;;;;;;5117740;27;20546;-79
2022/10/26 06:51:46;;;;;;;3.80;3.47;;;11.70;99.90;;;;;;5134443;27;20528;-71
2022/10/26 06:54:29;;;;;;;6.07;4.30;;;11.80;99.90;;;;;;5134308;27;20517;-71
2022/10/26 06:56:55;;;;;;;5.67;5.10;;;11.90;99.90;;;;;;5132728;27;20411;-72
2022/10/26 06:59:30;;;;;;;4.80;4.40;;;12.10;99.90;;;;;;5137710;27;20939;-74
2022/10/26 07:01:56;;;;;;;4.00;3.70;;;12.20;99.90;;;;;;5135120;27;20457;-77
2022/10/26 07:04:22;;;;;;;4.60;3.60;;;12.30;99.90;;;;;;5135192;27;20893;-72
2022/10/26 07:06:47;;;;;;;4.67;4.13;;;12.40;99.90;;;;;;5117525;27;20201;-72
2022/10/26 07:09:13;;;;;;;12.10;6.73;;;12.60;99.90;;;;;;5134496;27;20233;-72
2022/10/26 07:11:39;;;;;;;17.83;11.70;;;12.90;99.90;;;;;;5135980;27;20175;-71
2022/10/26 07:14:04;;;;;;;6.83;4.13;;;13.30;99.90;;;;;;5116924;27;20537;-71
2022/10/26 07:16:30;;;;;;;5.40;4.27;;;13.60;99.90;;;;;;5117431;27;20179;-76
2022/10/26 07:18:56;;;;;;;4.57;3.80;;;13.90;99.90;;;;;;5135989;27;20167;-77
2022/10/26 07:21:22;;;;;;;3.70;3.40;;;14.10;99.90;;;;;;5127031;27;20800;-72
2022/10/26 07:23:47;;;;;;;3.10;2.77;;;14.30;99.90;;;;;;5124359;27;20242;-76
2022/10/26 07:26:13;;;;;;;3.73;3.43;;;14.40;99.90;;;;;;5124445;27;20223;-76
2022/10/26 07:28:38;;;;;;;2.60;2.40;;;14.50;99.90;;;;;;5134111;27;20324;-77
2022/10/26 07:31:04;;;;;;;2.67;2.47;;;14.60;99.90;;;;;;5133856;27;20691;-77
2022/10/26 07:33:30;;;;;;;3.77;2.87;;;14.80;99.90;;;;;;5131339;27;20178;-71
2022/10/26 07:35:58;;;;;;;2.57;2.37;;;15.00;99.90;;;;;;5102520;27;20203;-76
2022/10/26 07:38:23;;;;;;;4.90;3.40;;;15.30;99.90;;;;;;5121514;27;20186;-72
2022/10/26 07:40:49;;;;;;;3.47;3.17;;;15.80;99.90;;;;;;5127729;27;20959;-77
2022/10/26 07:43:15;;;;;;;5.00;3.60;;;16.20;99.90;;;;;;5131272;27;20195;-72
2022/10/26 07:45:40;;;;;;;4.43;3.00;;;16.90;99.90;;;;;;5112807;27;20187;-77
2022/10/26 07:48:06;;;;;;;4.97;4.47;;;17.70;99.90;;;;;;5129960;27;20203;-77
2022/10/26 07:50:34;;;;;;;9.07;5.97;;;18.60;99.90;;;;;;5131300;27;20229;-77
2022/10/26 07:52:59;;;;;;;8.13;5.97;;;19.50;99.90;;;;;;5115292;27;20177;-76
2022/10/26 07:55:26;;;;;;;12.50;7.20;;;20.40;99.90;;;;;;5134149;27;20804;-72
2022/10/26 07:57:53;;;;;;;10.20;6.77;;;21.20;99.90;;;;;;5112071;27;20174;-72
2022/10/26 08:00:19;;;;;;;8.83;6.77;;;22.00;99.90;;;;;;5131225;27;20458;-77
2022/10/26 08:02:45;;;;;;;7.77;5.67;;;22.60;99.90;;;;;;5135098;27;20403;-72
2022/10/26 08:05:10;;;;;;;7.93;5.87;;;23.30;99.90;;;;;;5116697;27;20654;-77
2022/10/26 08:07:41;;;;;;;7.50;5.47;;;23.90;99.90;;;;;;5113768;27;20186;-77
2022/10/26 08:10:07;;;;;;;7.03;5.37;;;24.30;99.90;;;;;;5132935;27;20191;-77
2022/10/26 08:12:33;;;;;;;6.13;5.53;;;24.70;99.90;;;;;;5115727;27;20472;-73
2022/10/26 08:14:58;;;;;;;6.40;5.47;;;25.00;99.90;;;;;;5131382;27;20463;-72
2022/10/26 08:17:24;;;;;;;5.07;4.40;;;25.30;99.90;;;;;;5132832;27;20712;-72
2022/10/26 08:19:50;;;;;;;4.77;4.27;;;25.70;99.90;;;;;;5129288;27;20685;-78
2022/10/26 08:22:15;;;;;;;4.47;4.00;;;26.00;99.90;;;;;;5129452;27;20180;-72
2022/10/26 08:24:45;;;;;;;5.13;4.43;;;26.40;99.90;;;;;;5130962;27;20224;-77
2022/10/26 08:27:14;;;;;;;4.00;3.60;;;26.70;99.90;;;;;;5126158;27;20230;-78
2022/10/26 08:29:41;;;;;;;5.90;4.93;;;27.10;99.90;;;;;;5123923;27;20435;-72
2022/10/26 08:32:07;;;;;;;4.67;3.90;;;27.30;99.90;;;;;;5129753;27;20783;-73
2022/10/26 08:34:33;;;;;;;5.20;4.40;;;27.40;99.90;;;;;;5132099;27;20459;-77
2022/10/26 08:36:58;;;;;;;4.70;4.30;;;27.20;99.90;;;;;;5130844;27;20472;-77
2022/10/26 08:39:27;;;;;;;5.23;3.50;;;26.70;99.90;;;;;;5111808;27;20454;-72
2022/10/26 08:42:05;;;;;;;4.30;3.77;;;26.00;99.90;;;;;;5128261;27;20286;-72
2022/10/26 08:44:57;;;;;;;4.37;3.97;;;25.50;99.90;;;;;;5125402;27;21085;-77
2022/10/26 08:47:36;;;;;;;6.60;3.63;;;24.90;99.90;;;;;;5129269;27;20403;-72
2022/10/26 08:50:12;;;;;;;4.70;3.33;;;24.30;99.90;;;;;;5130082;27;20464;-72
2022/10/26 08:52:42;;;;;;;4.17;3.77;;;23.70;99.90;;;;;;5127309;27;20435;-72
2022/10/26 08:55:15;;;;;;;5.97;4.57;;;23.20;99.90;;;;;;5127052;27;20857;-77
2022/10/26 08:57:41;;;;;;;6.10;4.67;;;22.80;99.90;;;;;;5129657;27;20404;-77
2022/10/26 09:00:14;;;;;;;5.40;4.90;;;22.30;99.90;;;;;;5130722;27;20442;-77
2022/10/26 09:02:40;;;;;;;5.40;4.00;;;21.90;99.90;;;;;;5129260;27;20950;-72
2022/10/26 09:05:15;;;;;;;4.70;4.27;;;21.60;99.90;;;;;;5131367;27;20706;-77
2022/10/26 09:08:01;;;;;;;5.10;4.40;;;21.40;99.90;;;;;;5108822;27;20457;-72
2022/10/26 09:10:41;;;;;;;6.50;4.60;;;21.20;99.90;;;;;;5114527;28;20975;-72
2022/10/26 09:13:26;;;;;;;5.97;5.47;;;21.00;99.90;;;;;;5131729;28;20405;-72
2022/10/26 09:16:20;;;;;;;5.50;4.90;;;20.80;99.90;;;;;;5110134;28;21014;-77
2022/10/26 09:18:56;;;;;;;5.63;4.40;;;20.50;99.90;;;;;;5125437;28;20450;-72
2022/10/26 09:21:37;;;;;;;5.00;4.50;;;20.30;99.90;;;;;;5124604;28;20455;-72
2022/10/26 09:24:20;;;;;;;4.23;3.83;;;20.10;99.90;;;;;;5105540;28;20565;-77
2022/10/26 09:26:54;;;;;;;5.00;4.47;;;20.10;99.90;;;;;;5104637;28;20433;-72
2022/10/26 09:29:29;;;;;;;6.43;4.13;;;20.00;99.90;;;;;;5126400;27;20517;-72
2022/10/26 09:31:58;;;;;;;4.00;3.57;;;20.00;99.90;;;;;;5111395;28;20434;-72
2022/10/26 09:34:37;;;;;;;5.30;4.23;;;19.90;99.90;;;;;;5133332;27;20871;-76
2022/10/26 09:37:19;;;;;;;3.83;3.50;;;19.90;99.90;;;;;;5128470;27;20415;-77
2022/10/26 09:40:08;;;;;;;4.53;3.97;;;19.90;99.90;;;;;;5108651;27;20452;-77
2022/10/26 09:42:57;;;;;;;4.10;3.60;;;20.00;99.90;;;;;;5128809;27;20430;-77
2022/10/26 09:45:38;;;;;;;4.97;4.47;;;20.10;99.90;;;;;;5132863;27;20454;-72
2022/10/26 09:48:34;;;;;;;4.73;3.90;;;20.10;99.90;;;;;;5123431;27;20978;-72
2022/10/26 09:51:00;;;;;;;3.77;3.47;;;20.10;99.90;;;;;;5129414;27;20527;-72
2022/10/26 09:53:26;;;;;;;3.57;3.27;;;20.10;99.90;;;;;;5131574;27;20505;-72
2022/10/26 09:56:19;;;;;;;4.10;3.70;;;20.00;99.90;;;;;;5129599;27;20678;-72
2022/10/26 09:58:58;;;;;;;4.10;3.57;;;19.90;99.90;;;;;;5121913;27;20982;-77
2022/10/26 10:01:31;;;;;;;2.67;2.17;;;19.90;99.90;;;;;;5128915;27;20435;-77
2022/10/26 10:04:24;;;;;;;3.47;2.80;;;19.80;99.90;;;;;;5127765;27;20542;-72
2022/10/26 10:07:02;;;;;;;4.43;3.50;;;19.80;99.90;;;;;;5110950;27;20518;-72
2022/10/26 10:09:28;;;;;;;21.70;12.13;;;19.80;99.90;;;;;;5126584;27;20452;-78
2022/10/26 10:11:57;;;;;;;2.93;2.60;;;19.70;99.90;;;;;;5112117;27;20939;-72
2022/10/26 10:14:23;;;;;;;5.70;3.80;;;19.80;99.90;;;;;;5113407;27;20501;-72
2022/10/26 10:16:54;;;;;;;3.13;2.60;;;19.80;99.90;;;;;;5136293;27;20487;-75
2022/10/26 10:19:34;;;;;;;2.00;1.80;;;19.80;99.90;;;;;;5115476;27;20179;-77
2022/10/26 10:22:22;;;;;;;2.63;1.90;;;19.70;99.90;;;;;;5114960;27;20962;-77
2022/10/26 10:24:59;;;;;;;2.73;2.40;;;19.70;99.90;;;;;;5134737;27;20482;-77
2022/10/26 10:27:27;;;;;;;2.83;2.50;;;19.60;99.90;;;;;;5135877;27;20437;-77
2022/10/26 10:29:55;;;;;;;4.30;3.20;;;19.60;99.90;;;;;;5130183;27;21065;-71
2022/10/26 10:32:23;;;;;;;3.77;2.77;;;19.60;99.90;;;;;;5107632;27;20435;-77
2022/10/26 10:34:54;;;;;;;3.20;2.50;;;19.70;99.90;;;;;;5126647;27;20518;-77
2022/10/26 10:37:29;;;;;;;3.03;2.63;;;19.70;99.90;;;;;;5130415;27;20423;-72
2022/10/26 10:40:23;;;;;;;3.37;3.07;;;19.80;99.90;;;;;;5099792;28;20500;-77
2022/10/26 10:42:51;;;;;;;8.33;2.03;;;19.80;99.90;;;;;;5118170;27;20465;-72
2022/10/26 10:45:28;;;;;;;2.60;2.13;;;19.80;99.90;;;;;;5125773;27;20428;-77
2022/10/26 10:48:12;;;;;;;5.00;2.77;;;19.80;99.90;;;;;;5125693;27;20916;-78
2022/10/26 10:50:53;;;;;;;2.60;2.40;;;19.80;99.90;;;;;;5123519;27;20443;-72
2022/10/26 10:53:29;;;;;;;2.43;2.23;;;19.80;99.90;;;;;;5108305;27;20415;-73
2022/10/26 10:56:22;;;;;;;2.40;2.20;;;19.90;99.90;;;;;;5122524;27;20635;-77
2022/10/26 10:59:02;;;;;;;6.33;1.97;;;19.90;99.90;;;;;;5118412;27;20419;-72
2022/10/26 11:01:35;;;;;;;3.33;2.53;;;20.00;99.90;;;;;;5097882;27;20439;-72
2022/10/26 11:04:34;;;;;;;2.97;2.70;;;20.00;99.90;;;;;;5118382;27;20536;-72
2022/10/26 11:07:05;;;;;;;3.40;2.43;;;20.10;99.90;;;;;;5098498;27;20435;-77
2022/10/26 11:09:35;;;;;;;3.90;2.53;;;20.10;99.90;;;;;;5116173;27;20450;-72
2022/10/26 11:12:08;;;;;;;2.70;2.00;;;20.10;99.90;;;;;;5115718;27;20395;-71
2022/10/26 11:14:44;;;;;;;2.60;2.27;;;20.10;99.90;;;;;;5107485;27;20454;-73
2022/10/26 11:17:18;;;;;;;3.37;1.90;;;20.20;99.90;;;;;;5126551;27;20426;-78
2022/10/26 11:19:50;;;;;;;2.50;2.30;;;20.20;99.90;;;;;;5132110;27;21244;-73
2022/10/26 11:22:21;;;;;;;4.30;2.40;;;20.20;99.90;;;;;;5133671;27;20451;-78
2022/10/26 11:24:58;;;;;;;5.97;2.57;;;20.20;99.90;;;;;;5121691;27;21002;-73
2022/10/26 11:27:34;;;;;;;2.83;2.43;;;20.10;99.90;;;;;;5127741;27;20475;-73
2022/10/26 11:30:16;;;;;;;3.63;3.00;;;20.10;99.90;;;;;;5111673;27;20470;-73
2022/10/26 11:33:01;;;;;;;3.13;2.80;;;20.10;99.90;;;;;;5125091;27;20404;-78
2022/10/26 11:35:45;;;;;;;3.03;2.73;;;20.20;99.90;;;;;;5108313;27;20833;-73
2022/10/26 11:38:16;;;;;;;3.40;2.90;;;20.20;99.90;;;;;;5129714;27;20949;-78
2022/10/26 11:40:53;;;;;;;4.40;3.23;;;20.20;99.90;;;;;;5115055;27;20438;-78
2022/10/26 11:43:46;;;;;;;2.43;2.23;;;20.10;99.90;;;;;;5133109;27;20544;-78
2022/10/26 11:46:25;;;;;;;2.97;2.20;;;20.10;99.90;;;;;;5111943;27;20825;-72
2022/10/26 11:49:05;;;;;;;2.10;1.77;;;20.10;99.90;;;;;;5128205;27;20915;-73
2022/10/26 11:51:43;;;;;;;2.63;2.37;;;20.10;99.90;;;;;;5117190;27;20496;-78
2022/10/26 11:54:18;;;;;;;3.23;2.83;;;20.10;99.90;;;;;;5109728;27;20683;-72
2022/10/26 11:56:48;;;;;;;8.47;4.93;;;20.10;99.90;;;;;;5123792;27;20910;-73
2022/10/26 11:59:19;;;;;;;4.00;3.07;;;20.10;99.90;;;;;;5101760;27;20560;-73
2022/10/26 12:01:59;;;;;;;3.63;3.00;;;20.10;99.90;;;;;;5118054;27;20431;-72
2022/10/26 12:04:30;;;;;;;4.90;3.60;;;20.10;99.90;;;;;;5128004;27;20517;-78
2022/10/26 12:06:57;;;;;;;4.73;4.00;;;20.10;99.90;;;;;;5123442;27;20476;-78
2022/10/26 12:09:29;;;;;;;5.73;4.33;;;20.10;99.90;;;;;;5130720;27;20435;-78
2022/10/26 12:12:03;;;;;;;6.07;4.47;;;20.20;99.90;;;;;;5115022;27;20403;-77
2022/10/26 12:14:45;;;;;;;6.70;5.23;;;20.20;99.90;;;;;;5108033;27;20797;-72
2022/10/26 12:17:48;;;;;;;6.10;5.13;;;20.20;99.90;;;;;;5110690;27;21157;-73
2022/10/26 12:20:45;;;;;;;7.10;4.70;;;20.30;99.90;;;;;;5117816;27;20469;-72
2022/10/26 12:23:11;;;;;;;6.50;5.00;;;20.30;99.90;;;;;;5112132;27;20459;-77
2022/10/26 12:25:38;;;;;;;10.60;4.70;;;20.30;99.90;;;;;;5106113;27;20967;-78
2022/10/26 12:28:04;;;;;;;7.23;4.23;;;20.30;99.90;;;;;;5102274;27;20521;-73
2022/10/26 12:30:32;;;;;;;4.70;3.90;;;20.30;99.90;;;;;;5117246;27;20964;-78
2022/10/26 12:33:40;;;;;;;4.23;3.70;;;20.30;99.90;;;;;;5112283;27;20405;-72
2022/10/26 12:36:44;;;;;;;6.10;4.33;;;20.30;99.90;;;;;;5066155;28;20545;-77
2022/10/26 12:39:28;;;;;;;4.17;3.27;;;20.30;99.90;;;;;;5069924;28;20441;-73
2022/10/26 12:42:03;;;;;;;6.97;6.27;;;20.30;99.90;;;;;;5085973;28;20416;-78
2022/10/26 12:44:36;;;;;;;7.47;5.63;;;20.30;99.90;;;;;;5130307;27;20506;-78
2022/10/26 12:47:02;;;;;;;6.23;5.10;;;20.30;99.90;;;;;;5129266;27;20407;-73
2022/10/26 12:50:00;;;;;;;5.97;5.37;;;20.30;99.90;;;;;;5107177;27;20442;-78
2022/10/26 12:52:44;;;;;;;4.27;3.60;;;20.40;99.90;;;;;;5101836;27;20435;-78
2022/10/26 12:55:12;;;;;;;3.97;3.03;;;20.40;99.90;;;;;;5130344;27;20533;-77
2022/10/26 12:57:51;;;;;;;5.50;4.10;;;20.40;99.90;;;;;;5110443;28;20924;-72
2022/10/26 13:00:22;;;;;;;7.83;5.27;;;20.50;99.90;;;;;;5120316;27;20451;-71
2022/10/26 13:03:00;;;;;;;6.67;5.40;;;20.50;99.90;;;;;;5129788;27;20419;-72
2022/10/26 13:06:03;;;;;;;5.90;5.17;;;20.60;99.90;;;;;;5130197;27;20458;-77
2022/10/26 13:08:48;;;;;;;9.37;7.00;;;20.60;99.90;;;;;;5131147;27;20437;-72
2022/10/26 13:11:30;;;;;;;5.40;3.80;;;20.50;99.90;;;;;;5130785;27;20911;-72